sensor_id;sensor_type;location;lat;lon;timestamp;pressure;altitude;pressure_sealevel;temperature
22322;BMP180;11328;53.928;18.522;2022-09-21T00:01:29;100718.00;;;12.50
22322;BMP180;11328;53.928;18.522;2022-09-21T00:04:00;100710.00;;;12.50
22322;BMP180;11328;53.928;18.522;2022-09-21T00:06:32;100713.00;;;12.50
22322;BMP180;11328;53.928;18.522;2022-09-21T00:09:00;100709.00;;;12.60
22322;BMP180;11328;53.928;18.522;2022-09-21T00:11:29;100705.00;;;12.60
22322;BMP180;11328;53.928;18.522;2022-09-21T00:14:01;100719.00;;;12.60
22322;BMP180;11328;53.928;18.522;2022-09-21T00:16:30;100725.00;;;12.60
22322;BMP180;11328;53.928;18.522;2022-09-21T00:18:58;100722.00;;;12.60
22322;BMP180;11328;53.928;18.522;2022-09-21T00:21:26;100727.00;;;12.70
22322;BMP180;11328;53.928;18.522;2022-09-21T00:23:54;100729.00;;;12.60
22322;BMP180;11328;53.928;18.522;2022-09-21T00:26:24;100722.00;;;12.50
22322;BMP180;11328;53.928;18.522;2022-09-21T00:29:00;100709.00;;;12.60
22322;BMP180;11328;53.928;18.522;2022-09-21T00:31:30;100722.00;;;12.60
22322;BMP180;11328;53.928;18.522;2022-09-21T00:33:58;100725.00;;;12.60
22322;BMP180;11328;53.928;18.522;2022-09-21T00:36:27;100722.00;;;12.50
22322;BMP180;11328;53.928;18.522;2022-09-21T00:38:58;100725.00;;;12.60
22322;BMP180;11328;53.928;18.522;2022-09-21T00:41:29;100728.00;;;12.60
22322;BMP180;11328;53.928;18.522;2022-09-21T00:46:50;100728.00;;;12.40
22322;BMP180;11328;53.928;18.522;2022-09-21T00:49:19;100725.00;;;12.40
22322;BMP180;11328;53.928;18.522;2022-09-21T00:51:48;100729.00;;;12.40
22322;BMP180;11328;53.928;18.522;2022-09-21T00:54:24;100685.00;;;12.30
22322;BMP180;11328;53.928;18.522;2022-09-21T00:56:54;100735.00;;;12.30
22322;BMP180;11328;53.928;18.522;2022-09-21T00:59:22;100741.00;;;12.30
22322;BMP180;11328;53.928;18.522;2022-09-21T01:01:57;100720.00;;;12.20
22322;BMP180;11328;53.928;18.522;2022-09-21T01:04:24;100730.00;;;12.20
22322;BMP180;11328;53.928;18.522;2022-09-21T01:06:57;100740.00;;;12.20
22322;BMP180;11328;53.928;18.522;2022-09-21T01:09:26;100740.00;;;12.20
22322;BMP180;11328;53.928;18.522;2022-09-21T01:17:49;100732.00;;;12.10
22322;BMP180;11328;53.928;18.522;2022-09-21T01:29:47;100745.00;;;12.00
22322;BMP180;11328;53.928;18.522;2022-09-21T01:32:39;100736.00;;;12.00
22322;BMP180;11328;53.928;18.522;2022-09-21T01:35:28;100748.00;;;11.90
22322;BMP180;11328;53.928;18.522;2022-09-21T01:38:04;100744.00;;;11.90
22322;BMP180;11328;53.928;18.522;2022-09-21T01:40:39;100737.00;;;11.80
22322;BMP180;11328;53.928;18.522;2022-09-21T01:43:13;100739.00;;;11.60
22322;BMP180;11328;53.928;18.522;2022-09-21T01:45:51;100749.00;;;11.50
22322;BMP180;11328;53.928;18.522;2022-09-21T02:01:23;100744.00;;;12.10
22322;BMP180;11328;53.928;18.522;2022-09-21T02:03:58;100734.00;;;11.90
22322;BMP180;11328;53.928;18.522;2022-09-21T02:06:29;100742.00;;;11.80
22322;BMP180;11328;53.928;18.522;2022-09-21T02:08:57;100730.00;;;11.80
22322;BMP180;11328;53.928;18.522;2022-09-21T02:11:26;100735.00;;;11.70
22322;BMP180;11328;53.928;18.522;2022-09-21T02:13:54;100735.00;;;11.60
22322;BMP180;11328;53.928;18.522;2022-09-21T02:16:46;100736.00;;;11.60
22322;BMP180;11328;53.928;18.522;2022-09-21T02:19:39;100726.00;;;11.50
22322;BMP180;11328;53.928;18.522;2022-09-21T02:22:43;100740.00;;;11.40
22322;BMP180;11328;53.928;18.522;2022-09-21T02:25:21;100745.00;;;11.20
22322;BMP180;11328;53.928;18.522;2022-09-21T02:33:55;100744.00;;;11.30
22322;BMP180;11328;53.928;18.522;2022-09-21T02:36:42;100748.00;;;11.30
22322;BMP180;11328;53.928;18.522;2022-09-21T02:42:19;100759.00;;;11.20
22322;BMP180;11328;53.928;18.522;2022-09-21T02:45:23;100757.00;;;11.20
22322;BMP180;11328;53.928;18.522;2022-09-21T02:48:09;100754.00;;;11.10
22322;BMP180;11328;53.928;18.522;2022-09-21T02:50:43;100757.00;;;11.00
22322;BMP180;11328;53.928;18.522;2022-09-21T02:53:15;100755.00;;;11.00
22322;BMP180;11328;53.928;18.522;2022-09-21T02:55:56;100759.00;;;11.00
22322;BMP180;11328;53.928;18.522;2022-09-21T02:58:41;100756.00;;;10.90
22322;BMP180;11328;53.928;18.522;2022-09-21T03:01:18;100764.00;;;10.90
22322;BMP180;11328;53.928;18.522;2022-09-21T03:03:57;100766.00;;;10.90
22322;BMP180;11328;53.928;18.522;2022-09-21T03:06:35;100765.00;;;11.00
22322;BMP180;11328;53.928;18.522;2022-09-21T03:09:06;100762.00;;;11.00
22322;BMP180;11328;53.928;18.522;2022-09-21T03:11:41;100764.00;;;11.00
22322;BMP180;11328;53.928;18.522;2022-09-21T03:14:24;100761.00;;;11.00
22322;BMP180;11328;53.928;18.522;2022-09-21T03:17:00;100766.00;;;11.10
22322;BMP180;11328;53.928;18.522;2022-09-21T03:19:44;100769.00;;;11.10
22322;BMP180;11328;53.928;18.522;2022-09-21T03:22:26;100782.00;;;11.10
22322;BMP180;11328;53.928;18.522;2022-09-21T03:24:55;100778.00;;;11.10
22322;BMP180;11328;53.928;18.522;2022-09-21T03:27:36;100773.00;;;11.10
22322;BMP180;11328;53.928;18.522;2022-09-21T03:30:24;100782.00;;;11.10
22322;BMP180;11328;53.928;18.522;2022-09-21T03:33:02;100775.00;;;11.10
22322;BMP180;11328;53.928;18.522;2022-09-21T03:35:41;100780.00;;;11.10
22322;BMP180;11328;53.928;18.522;2022-09-21T03:38:19;100777.00;;;11.00
22322;BMP180;11328;53.928;18.522;2022-09-21T03:40:54;100784.00;;;11.10
22322;BMP180;11328;53.928;18.522;2022-09-21T03:43:33;100780.00;;;11.20
22322;BMP180;11328;53.928;18.522;2022-09-21T03:46:13;100787.00;;;11.20
22322;BMP180;11328;53.928;18.522;2022-09-21T03:48:47;100785.00;;;11.20
22322;BMP180;11328;53.928;18.522;2022-09-21T03:51:21;100795.00;;;11.30
22322;BMP180;11328;53.928;18.522;2022-09-21T03:53:55;100792.00;;;11.30
22322;BMP180;11328;53.928;18.522;2022-09-21T03:56:23;100786.00;;;11.30
22322;BMP180;11328;53.928;18.522;2022-09-21T03:58:51;100788.00;;;11.40
22322;BMP180;11328;53.928;18.522;2022-09-21T04:01:18;100787.00;;;11.40
22322;BMP180;11328;53.928;18.522;2022-09-21T04:03:46;100793.00;;;11.40
22322;BMP180;11328;53.928;18.522;2022-09-21T04:06:14;100797.00;;;11.40
22322;BMP180;11328;53.928;18.522;2022-09-21T04:08:44;100795.00;;;11.50
22322;BMP180;11328;53.928;18.522;2022-09-21T04:11:14;100792.00;;;11.40
22322;BMP180;11328;53.928;18.522;2022-09-21T04:13:42;100799.00;;;11.50
22322;BMP180;11328;53.928;18.522;2022-09-21T04:16:10;100792.00;;;11.40
22322;BMP180;11328;53.928;18.522;2022-09-21T04:18:39;100791.00;;;11.40
22322;BMP180;11328;53.928;18.522;2022-09-21T04:21:08;100789.00;;;11.40
22322;BMP180;11328;53.928;18.522;2022-09-21T04:23:37;100802.00;;;11.40
22322;BMP180;11328;53.928;18.522;2022-09-21T04:26:47;100793.00;;;11.40
22322;BMP180;11328;53.928;18.522;2022-09-21T04:29:30;100797.00;;;11.50
22322;BMP180;11328;53.928;18.522;2022-09-21T04:32:02;100794.00;;;11.50
22322;BMP180;11328;53.928;18.522;2022-09-21T04:34:55;100800.00;;;11.60
22322;BMP180;11328;53.928;18.522;2022-09-21T04:37:33;100803.00;;;11.50
22322;BMP180;11328;53.928;18.522;2022-09-21T04:40:13;100798.00;;;11.50
22322;BMP180;11328;53.928;18.522;2022-09-21T04:42:54;100810.00;;;11.60
22322;BMP180;11328;53.928;18.522;2022-09-21T04:45:31;100817.00;;;11.60
22322;BMP180;11328;53.928;18.522;2022-09-21T04:48:08;100825.00;;;11.70
22322;BMP180;11328;53.928;18.522;2022-09-21T04:50:42;100834.00;;;11.70
22322;BMP180;11328;53.928;18.522;2022-09-21T04:53:16;100836.00;;;11.90
22322;BMP180;11328;53.928;18.522;2022-09-21T04:55:51;100836.00;;;12.00
22322;BMP180;11328;53.928;18.522;2022-09-21T04:58:25;100836.00;;;12.00
22322;BMP180;11328;53.928;18.522;2022-09-21T05:01:00;100846.00;;;11.90
22322;BMP180;11328;53.928;18.522;2022-09-21T05:03:33;100844.00;;;11.90
22322;BMP180;11328;53.928;18.522;2022-09-21T05:06:06;100835.00;;;11.90
22322;BMP180;11328;53.928;18.522;2022-09-21T05:08:44;100838.00;;;11.90
22322;BMP180;11328;53.928;18.522;2022-09-21T05:11:41;100836.00;;;11.80
22322;BMP180;11328;53.928;18.522;2022-09-21T05:14:17;100843.00;;;11.90
22322;BMP180;11328;53.928;18.522;2022-09-21T05:16:48;100848.00;;;11.90
22322;BMP180;11328;53.928;18.522;2022-09-21T05:19:20;100856.00;;;11.90
22322;BMP180;11328;53.928;18.522;2022-09-21T05:22:01;100851.00;;;11.80
22322;BMP180;11328;53.928;18.522;2022-09-21T05:24:38;100849.00;;;11.70
22322;BMP180;11328;53.928;18.522;2022-09-21T05:27:16;100844.00;;;11.80
22322;BMP180;11328;53.928;18.522;2022-09-21T05:29:53;100848.00;;;11.70
22322;BMP180;11328;53.928;18.522;2022-09-21T05:38:12;100864.00;;;11.80
22322;BMP180;11328;53.928;18.522;2022-09-21T05:40:46;100865.00;;;11.80
22322;BMP180;11328;53.928;18.522;2022-09-21T05:43:24;100867.00;;;11.80
22322;BMP180;11328;53.928;18.522;2022-09-21T05:46:14;100869.00;;;12.00
22322;BMP180;11328;53.928;18.522;2022-09-21T05:49:24;100876.00;;;12.10
22322;BMP180;11328;53.928;18.522;2022-09-21T05:52:48;100878.00;;;11.90
22322;BMP180;11328;53.928;18.522;2022-09-21T05:55:33;100871.00;;;12.30
22322;BMP180;11328;53.928;18.522;2022-09-21T06:01:28;100865.00;;;12.50
22322;BMP180;11328;53.928;18.522;2022-09-21T06:03:52;100868.00;;;13.00
22322;BMP180;11328;53.928;18.522;2022-09-21T06:06:20;100877.00;;;13.10
22322;BMP180;11328;53.928;18.522;2022-09-21T06:08:49;100863.00;;;13.00
22322;BMP180;11328;53.928;18.522;2022-09-21T06:11:17;100874.00;;;13.20
22322;BMP180;11328;53.928;18.522;2022-09-21T06:13:45;100878.00;;;13.60
22322;BMP180;11328;53.928;18.522;2022-09-21T06:16:14;100877.00;;;13.80
22322;BMP180;11328;53.928;18.522;2022-09-21T06:18:42;100878.00;;;14.20
22322;BMP180;11328;53.928;18.522;2022-09-21T06:21:10;100885.00;;;14.50
22322;BMP180;11328;53.928;18.522;2022-09-21T06:23:39;100889.00;;;14.50
22322;BMP180;11328;53.928;18.522;2022-09-21T06:26:07;100893.00;;;14.40
22322;BMP180;11328;53.928;18.522;2022-09-21T06:28:35;100897.00;;;14.30
22322;BMP180;11328;53.928;18.522;2022-09-21T06:31:03;100895.00;;;14.30
22322;BMP180;11328;53.928;18.522;2022-09-21T06:33:31;100892.00;;;14.30
22322;BMP180;11328;53.928;18.522;2022-09-21T06:36:02;100891.00;;;14.20
22322;BMP180;11328;53.928;18.522;2022-09-21T06:38:31;100899.00;;;14.40
22322;BMP180;11328;53.928;18.522;2022-09-21T06:41:03;100894.00;;;14.40
22322;BMP180;11328;53.928;18.522;2022-09-21T06:43:31;100905.00;;;14.40
22322;BMP180;11328;53.928;18.522;2022-09-21T06:46:01;100904.00;;;14.30
22322;BMP180;11328;53.928;18.522;2022-09-21T06:48:32;100907.00;;;14.20
22322;BMP180;11328;53.928;18.522;2022-09-21T06:51:02;100909.00;;;14.20
22322;BMP180;11328;53.928;18.522;2022-09-21T06:53:32;100907.00;;;14.20
22322;BMP180;11328;53.928;18.522;2022-09-21T06:56:02;100911.00;;;14.20
22322;BMP180;11328;53.928;18.522;2022-09-21T06:58:30;100919.00;;;14.30
22322;BMP180;11328;53.928;18.522;2022-09-21T07:01:09;100927.00;;;14.40
22322;BMP180;11328;53.928;18.522;2022-09-21T07:03:40;100928.00;;;14.20
22322;BMP180;11328;53.928;18.522;2022-09-21T07:06:10;100926.00;;;14.20
22322;BMP180;11328;53.928;18.522;2022-09-21T07:08:41;100931.00;;;14.50
22322;BMP180;11328;53.928;18.522;2022-09-21T07:11:30;100933.00;;;14.20
22322;BMP180;11328;53.928;18.522;2022-09-21T07:13:58;100937.00;;;14.20
22322;BMP180;11328;53.928;18.522;2022-09-21T07:16:26;100939.00;;;14.30
22322;BMP180;11328;53.928;18.522;2022-09-21T07:18:54;100934.00;;;14.40
22322;BMP180;11328;53.928;18.522;2022-09-21T07:21:24;100942.00;;;14.40
22322;BMP180;11328;53.928;18.522;2022-09-21T07:23:52;100935.00;;;14.50
22322;BMP180;11328;53.928;18.522;2022-09-21T07:26:19;100943.00;;;14.40
22322;BMP180;11328;53.928;18.522;2022-09-21T07:28:48;100948.00;;;14.50
22322;BMP180;11328;53.928;18.522;2022-09-21T07:31:16;100946.00;;;14.60
22322;BMP180;11328;53.928;18.522;2022-09-21T07:33:44;100945.00;;;14.50
22322;BMP180;11328;53.928;18.522;2022-09-21T07:36:15;100942.00;;;14.40
22322;BMP180;11328;53.928;18.522;2022-09-21T07:38:43;100945.00;;;14.40
22322;BMP180;11328;53.928;18.522;2022-09-21T07:41:13;100941.00;;;14.50
22322;BMP180;11328;53.928;18.522;2022-09-21T07:43:40;100934.00;;;14.70
22322;BMP180;11328;53.928;18.522;2022-09-21T07:46:11;100947.00;;;14.70
22322;BMP180;11328;53.928;18.522;2022-09-21T07:48:40;100948.00;;;14.80
22322;BMP180;11328;53.928;18.522;2022-09-21T07:51:11;100954.00;;;14.80
22322;BMP180;11328;53.928;18.522;2022-09-21T07:53:41;100963.00;;;14.80
22322;BMP180;11328;53.928;18.522;2022-09-21T07:56:14;100962.00;;;14.80
22322;BMP180;11328;53.928;18.522;2022-09-21T07:58:42;100954.00;;;14.70
22322;BMP180;11328;53.928;18.522;2022-09-21T08:01:30;100963.00;;;14.90
22322;BMP180;11328;53.928;18.522;2022-09-21T08:03:59;100963.00;;;14.90
22322;BMP180;11328;53.928;18.522;2022-09-21T08:06:29;100959.00;;;15.00
22322;BMP180;11328;53.928;18.522;2022-09-21T08:09:01;100963.00;;;15.20
22322;BMP180;11328;53.928;18.522;2022-09-21T08:11:30;100964.00;;;15.30
22322;BMP180;11328;53.928;18.522;2022-09-21T08:14:02;100970.00;;;15.40
22322;BMP180;11328;53.928;18.522;2022-09-21T08:16:30;100969.00;;;15.60
22322;BMP180;11328;53.928;18.522;2022-09-21T08:18:58;100974.00;;;15.70
22322;BMP180;11328;53.928;18.522;2022-09-21T08:21:27;100973.00;;;15.70
22322;BMP180;11328;53.928;18.522;2022-09-21T08:23:55;100970.00;;;15.80
22322;BMP180;11328;53.928;18.522;2022-09-21T08:26:26;100977.00;;;15.60
22322;BMP180;11328;53.928;18.522;2022-09-21T08:28:54;100972.00;;;15.80
22322;BMP180;11328;53.928;18.522;2022-09-21T08:31:25;100975.00;;;15.90
22322;BMP180;11328;53.928;18.522;2022-09-21T08:33:55;100962.00;;;15.90
22322;BMP180;11328;53.928;18.522;2022-09-21T08:36:24;100962.00;;;15.90
22322;BMP180;11328;53.928;18.522;2022-09-21T08:38:52;100953.00;;;16.40
22322;BMP180;11328;53.928;18.522;2022-09-21T08:44:26;100975.00;;;17.10
22322;BMP180;11328;53.928;18.522;2022-09-21T08:47:40;100961.00;;;16.90
22322;BMP180;11328;53.928;18.522;2022-09-21T08:50:51;100962.00;;;17.00
22322;BMP180;11328;53.928;18.522;2022-09-21T08:53:43;100970.00;;;16.80
22322;BMP180;11328;53.928;18.522;2022-09-21T08:56:14;100968.00;;;16.70
22322;BMP180;11328;53.928;18.522;2022-09-21T08:58:42;100963.00;;;16.80
22322;BMP180;11328;53.928;18.522;2022-09-21T09:18:44;100958.00;;;17.70
22322;BMP180;11328;53.928;18.522;2022-09-21T09:29:14;100971.00;;;18.10
22322;BMP180;11328;53.928;18.522;2022-09-21T09:31:44;100926.00;;;17.90
22322;BMP180;11328;53.928;18.522;2022-09-21T09:34:27;100937.00;;;18.10
22322;BMP180;11328;53.928;18.522;2022-09-21T09:37:17;100932.00;;;17.90
22322;BMP180;11328;53.928;18.522;2022-09-21T09:39:55;100949.00;;;18.20
22322;BMP180;11328;53.928;18.522;2022-09-21T09:43:13;100950.00;;;18.40
22322;BMP180;11328;53.928;18.522;2022-09-21T09:46:24;100949.00;;;18.10
22322;BMP180;11328;53.928;18.522;2022-09-21T09:51:57;100939.00;;;18.40
22322;BMP180;11328;53.928;18.522;2022-09-21T09:54:28;100921.00;;;18.90
22322;BMP180;11328;53.928;18.522;2022-09-21T09:56:56;100920.00;;;19.10
22322;BMP180;11328;53.928;18.522;2022-09-21T09:59:31;100938.00;;;18.80
22322;BMP180;11328;53.928;18.522;2022-09-21T10:02:27;100930.00;;;18.90
22322;BMP180;11328;53.928;18.522;2022-09-21T10:05:04;100949.00;;;18.90
22322;BMP180;11328;53.928;18.522;2022-09-21T10:07:43;100946.00;;;18.10
22322;BMP180;11328;53.928;18.522;2022-09-21T10:10:37;100931.00;;;18.60
22322;BMP180;11328;53.928;18.522;2022-09-21T10:13:32;100946.00;;;18.90
22322;BMP180;11328;53.928;18.522;2022-09-21T10:16:05;100940.00;;;18.40
22322;BMP180;11328;53.928;18.522;2022-09-21T10:18:45;100936.00;;;18.80
22322;BMP180;11328;53.928;18.522;2022-09-21T10:21:35;100932.00;;;18.90
22322;BMP180;11328;53.928;18.522;2022-09-21T10:24:21;100935.00;;;19.00
22322;BMP180;11328;53.928;18.522;2022-09-21T10:32:03;100937.00;;;19.20
22322;BMP180;11328;53.928;18.522;2022-09-21T10:34:59;100941.00;;;19.30
22322;BMP180;11328;53.928;18.522;2022-09-21T10:37:33;100943.00;;;19.10
22322;BMP180;11328;53.928;18.522;2022-09-21T10:42:55;100952.00;;;18.50
22322;BMP180;11328;53.928;18.522;2022-09-21T10:45:28;100950.00;;;18.60
22322;BMP180;11328;53.928;18.522;2022-09-21T10:48:13;100948.00;;;18.50
22322;BMP180;11328;53.928;18.522;2022-09-21T10:50:48;100951.00;;;18.50
22322;BMP180;11328;53.928;18.522;2022-09-21T10:53:27;100964.00;;;18.10
22322;BMP180;11328;53.928;18.522;2022-09-21T10:56:16;100959.00;;;17.90
22322;BMP180;11328;53.928;18.522;2022-09-21T11:01:50;100950.00;;;18.50
22322;BMP180;11328;53.928;18.522;2022-09-21T11:04:56;100944.00;;;18.60
22322;BMP180;11328;53.928;18.522;2022-09-21T11:10:49;100945.00;;;18.90
22322;BMP180;11328;53.928;18.522;2022-09-21T11:14:09;100947.00;;;18.80
22322;BMP180;11328;53.928;18.522;2022-09-21T11:16:34;100950.00;;;18.80
22322;BMP180;11328;53.928;18.522;2022-09-21T11:19:43;100948.00;;;18.50
22322;BMP180;11328;53.928;18.522;2022-09-21T11:31:57;100945.00;;;18.60
22322;BMP180;11328;53.928;18.522;2022-09-21T11:37:54;100815.00;;;18.50
22322;BMP180;11328;53.928;18.522;2022-09-21T11:49:18;100949.00;;;18.70
22322;BMP180;11328;53.928;18.522;2022-09-21T12:00:17;100939.00;;;18.70
22322;BMP180;11328;53.928;18.522;2022-09-21T12:05:28;100946.00;;;19.10
22322;BMP180;11328;53.928;18.522;2022-09-21T12:10:53;100941.00;;;18.80
22322;BMP180;11328;53.928;18.522;2022-09-21T12:19:54;100962.00;;;18.50
22322;BMP180;11328;53.928;18.522;2022-09-21T12:22:30;100959.00;;;18.50
22322;BMP180;11328;53.928;18.522;2022-09-21T12:25:22;100963.00;;;18.40
22322;BMP180;11328;53.928;18.522;2022-09-21T12:28:04;100962.00;;;18.50
22322;BMP180;11328;53.928;18.522;2022-09-21T12:30:37;100958.00;;;18.50
22322;BMP180;11328;53.928;18.522;2022-09-21T12:34:01;100946.00;;;18.60
22322;BMP180;11328;53.928;18.522;2022-09-21T12:36:40;100947.00;;;18.70
22322;BMP180;11328;53.928;18.522;2022-09-21T12:39:34;100948.00;;;18.90
22322;BMP180;11328;53.928;18.522;2022-09-21T12:42:39;100958.00;;;19.10
22322;BMP180;11328;53.928;18.522;2022-09-21T12:45:20;100955.00;;;18.90
22322;BMP180;11328;53.928;18.522;2022-09-21T12:48:13;100958.00;;;19.20
22322;BMP180;11328;53.928;18.522;2022-09-21T12:53:46;100951.00;;;19.20
22322;BMP180;11328;53.928;18.522;2022-09-21T12:56:38;100964.00;;;19.10
22322;BMP180;11328;53.928;18.522;2022-09-21T13:02:38;100963.00;;;18.70
22322;BMP180;11328;53.928;18.522;2022-09-21T13:05:22;100955.00;;;18.80
22322;BMP180;11328;53.928;18.522;2022-09-21T13:08:18;100946.00;;;18.60
22322;BMP180;11328;53.928;18.522;2022-09-21T13:11:00;100961.00;;;18.40
22322;BMP180;11328;53.928;18.522;2022-09-21T13:16:27;100980.00;;;18.40
22322;BMP180;11328;53.928;18.522;2022-09-21T13:19:03;100957.00;;;18.40
22322;BMP180;11328;53.928;18.522;2022-09-21T13:21:32;100966.00;;;18.60
22322;BMP180;11328;53.928;18.522;2022-09-21T13:24:12;100963.00;;;18.40
22322;BMP180;11328;53.928;18.522;2022-09-21T13:26:56;100957.00;;;18.50
22322;BMP180;11328;53.928;18.522;2022-09-21T13:29:36;100963.00;;;18.50
22322;BMP180;11328;53.928;18.522;2022-09-21T13:34:43;100956.00;;;18.20
22322;BMP180;11328;53.928;18.522;2022-09-21T13:39:50;100960.00;;;17.80
22322;BMP180;11328;53.928;18.522;2022-09-21T13:47:55;100951.00;;;18.20
22322;BMP180;11328;53.928;18.522;2022-09-21T13:50:35;100950.00;;;18.40
22322;BMP180;11328;53.928;18.522;2022-09-21T13:53:20;100953.00;;;18.60
22322;BMP180;11328;53.928;18.522;2022-09-21T13:55:59;100946.00;;;18.40
22322;BMP180;11328;53.928;18.522;2022-09-21T13:58:34;100945.00;;;18.20
22322;BMP180;11328;53.928;18.522;2022-09-21T14:01:33;100950.00;;;18.10
22322;BMP180;11328;53.928;18.522;2022-09-21T14:04:30;100954.00;;;18.20
22322;BMP180;11328;53.928;18.522;2022-09-21T14:07:05;100966.00;;;18.30
22322;BMP180;11328;53.928;18.522;2022-09-21T14:09:56;100959.00;;;18.30
22322;BMP180;11328;53.928;18.522;2022-09-21T14:12:32;100965.00;;;18.20
22322;BMP180;11328;53.928;18.522;2022-09-21T14:15:34;100970.00;;;18.10
22322;BMP180;11328;53.928;18.522;2022-09-21T14:21:12;100960.00;;;17.80
22322;BMP180;11328;53.928;18.522;2022-09-21T14:32:15;100974.00;;;17.20
22322;BMP180;11328;53.928;18.522;2022-09-21T14:34:47;100971.00;;;17.10
22322;BMP180;11328;53.928;18.522;2022-09-21T14:37:30;100971.00;;;17.10
22322;BMP180;11328;53.928;18.522;2022-09-21T14:40:03;100980.00;;;16.90
22322;BMP180;11328;53.928;18.522;2022-09-21T14:42:33;100984.00;;;16.90
22322;BMP180;11328;53.928;18.522;2022-09-21T14:45:02;100983.00;;;16.90
22322;BMP180;11328;53.928;18.522;2022-09-21T14:47:46;100985.00;;;16.80
22322;BMP180;11328;53.928;18.522;2022-09-21T14:50:41;100982.00;;;16.80
22322;BMP180;11328;53.928;18.522;2022-09-21T15:02:22;100991.00;;;16.90
22322;BMP180;11328;53.928;18.522;2022-09-21T15:05:13;100995.00;;;16.90
22322;BMP180;11328;53.928;18.522;2022-09-21T15:13:48;101005.00;;;16.90
22322;BMP180;11328;53.928;18.522;2022-09-21T15:16:25;101003.00;;;16.90
22322;BMP180;11328;53.928;18.522;2022-09-21T15:21:48;101000.00;;;16.90
22322;BMP180;11328;53.928;18.522;2022-09-21T15:26:50;101010.00;;;16.80
22322;BMP180;11328;53.928;18.522;2022-09-21T15:29:29;101010.00;;;16.80
22322;BMP180;11328;53.928;18.522;2022-09-21T15:31:59;101013.00;;;16.60
22322;BMP180;11328;53.928;18.522;2022-09-21T15:34:27;101010.00;;;16.50
22322;BMP180;11328;53.928;18.522;2022-09-21T15:37:15;101015.00;;;16.40
22322;BMP180;11328;53.928;18.522;2022-09-21T15:39:43;101007.00;;;16.30
22322;BMP180;11328;53.928;18.522;2022-09-21T15:42:19;101002.00;;;16.30
22322;BMP180;11328;53.928;18.522;2022-09-21T15:44:58;101009.00;;;16.20
22322;BMP180;11328;53.928;18.522;2022-09-21T15:47:33;101013.00;;;16.10
22322;BMP180;11328;53.928;18.522;2022-09-21T15:50:01;101021.00;;;16.20
22322;BMP180;11328;53.928;18.522;2022-09-21T15:52:50;101011.00;;;16.20
22322;BMP180;11328;53.928;18.522;2022-09-21T15:55:20;101025.00;;;16.20
22322;BMP180;11328;53.928;18.522;2022-09-21T15:57:53;101018.00;;;16.20
22322;BMP180;11328;53.928;18.522;2022-09-21T16:00:31;101021.00;;;16.20
22322;BMP180;11328;53.928;18.522;2022-09-21T16:05:46;101022.00;;;16.30
22322;BMP180;11328;53.928;18.522;2022-09-21T16:08:35;101017.00;;;16.10
22322;BMP180;11328;53.928;18.522;2022-09-21T16:11:16;101028.00;;;16.10
22322;BMP180;11328;53.928;18.522;2022-09-21T16:13:46;101033.00;;;16.10
22322;BMP180;11328;53.928;18.522;2022-09-21T16:22:43;101039.00;;;16.00
22322;BMP180;11328;53.928;18.522;2022-09-21T16:25:34;101038.00;;;15.90
22322;BMP180;11328;53.928;18.522;2022-09-21T16:30:46;101040.00;;;15.60
22322;BMP180;11328;53.928;18.522;2022-09-21T16:38:46;101046.00;;;15.50
22322;BMP180;11328;53.928;18.522;2022-09-21T16:41:14;101046.00;;;15.50
22322;BMP180;11328;53.928;18.522;2022-09-21T16:43:43;101052.00;;;15.30
22322;BMP180;11328;53.928;18.522;2022-09-21T16:46:12;101044.00;;;15.40
22322;BMP180;11328;53.928;18.522;2022-09-21T16:48:40;101057.00;;;15.20
22322;BMP180;11328;53.928;18.522;2022-09-21T16:51:13;101060.00;;;15.30
22322;BMP180;11328;53.928;18.522;2022-09-21T16:53:41;101052.00;;;15.20
22322;BMP180;11328;53.928;18.522;2022-09-21T16:56:13;101058.00;;;15.20
22322;BMP180;11328;53.928;18.522;2022-09-21T16:58:42;101056.00;;;15.20
22322;BMP180;11328;53.928;18.522;2022-09-21T17:01:14;101062.00;;;15.10
22322;BMP180;11328;53.928;18.522;2022-09-21T17:03:42;101067.00;;;15.00
22322;BMP180;11328;53.928;18.522;2022-09-21T17:06:19;101061.00;;;15.00
22322;BMP180;11328;53.928;18.522;2022-09-21T17:08:51;101070.00;;;15.00
22322;BMP180;11328;53.928;18.522;2022-09-21T17:11:19;101062.00;;;15.00
22322;BMP180;11328;53.928;18.522;2022-09-21T17:13:49;101070.00;;;14.90
22322;BMP180;11328;53.928;18.522;2022-09-21T17:16:19;101077.00;;;14.90
22322;BMP180;11328;53.928;18.522;2022-09-21T17:18:47;101069.00;;;14.80
22322;BMP180;11328;53.928;18.522;2022-09-21T17:21:16;101074.00;;;14.70
22322;BMP180;11328;53.928;18.522;2022-09-21T17:23:46;101067.00;;;14.60
22322;BMP180;11328;53.928;18.522;2022-09-21T17:26:16;101066.00;;;14.50
22322;BMP180;11328;53.928;18.522;2022-09-21T17:28:46;101062.00;;;14.40
22322;BMP180;11328;53.928;18.522;2022-09-21T17:31:15;101074.00;;;14.30
22322;BMP180;11328;53.928;18.522;2022-09-21T17:33:45;101074.00;;;14.30
22322;BMP180;11328;53.928;18.522;2022-09-21T17:36:15;101071.00;;;14.30
22322;BMP180;11328;53.928;18.522;2022-09-21T17:38:44;101068.00;;;14.00
22322;BMP180;11328;53.928;18.522;2022-09-21T17:42:05;101077.00;;;14.30
22322;BMP180;11328;53.928;18.522;2022-09-21T17:45:48;101081.00;;;14.30
22322;BMP180;11328;53.928;18.522;2022-09-21T17:47:43;101073.00;;;14.10
22322;BMP180;11328;53.928;18.522;2022-09-21T17:52:41;101069.00;;;13.90
22322;BMP180;11328;53.928;18.522;2022-09-21T17:55:28;101072.00;;;13.80
22322;BMP180;11328;53.928;18.522;2022-09-21T18:03:37;101068.00;;;13.90
22322;BMP180;11328;53.928;18.522;2022-09-21T18:06:10;101067.00;;;13.80
22322;BMP180;11328;53.928;18.522;2022-09-21T18:08:40;101078.00;;;13.80
22322;BMP180;11328;53.928;18.522;2022-09-21T18:25:54;101079.00;;;13.50